createdAt,value
2023-03-06T06:37:03.120Z,76.80
2023-03-06T06:40:05.254Z,76.80
2023-03-06T06:43:06.955Z,76.70
2023-03-06T06:46:38.855Z,76.70
2023-03-06T06:49:30.240Z,76.70
2023-03-06T06:52:31.884Z,76.70
2023-03-06T06:55:33.692Z,76.70
2023-03-06T06:58:35.356Z,76.70
2023-03-06T07:01:37.099Z,76.80
2023-03-06T07:04:44.280Z,76.80
2023-03-06T07:07:51.454Z,76.70
2023-03-06T07:10:53.223Z,76.80
2023-03-06T07:13:56.029Z,76.70
2023-03-06T07:16:58.379Z,76.60
2023-03-06T07:20:00.146Z,76.60
2023-03-06T07:23:01.947Z,76.50
2023-03-06T07:26:04.101Z,76.50
2023-03-06T07:29:05.783Z,76.40
2023-03-06T07:32:07.464Z,76.50
2023-03-06T07:35:19.669Z,76.40
2023-03-06T07:38:22.261Z,76.50
2023-03-06T07:41:23.883Z,76.50
2023-03-06T07:44:25.968Z,76.50
2023-03-06T07:47:27.745Z,76.40
2023-03-06T07:50:29.464Z,76.50
2023-03-06T07:53:31.313Z,76.50
2023-03-06T07:56:34.950Z,76.50
2023-03-06T07:59:36.656Z,76.50
2023-03-06T08:02:38.465Z,76.60
2023-03-06T08:05:40.215Z,76.60
2023-03-06T08:08:42.508Z,76.50
2023-03-06T08:11:45.275Z,76.70
2023-03-06T08:14:46.928Z,76.80
2023-03-06T08:17:50.089Z,77.00
2023-03-06T08:21:04.284Z,77.10
2023-03-06T08:24:07.485Z,77.10
2023-03-06T08:27:09.551Z,77.20
2023-03-06T08:30:11.637Z,77.50
2023-03-06T08:33:13.287Z,77.50
2023-03-06T08:36:14.933Z,77.60
2023-03-06T08:39:16.693Z,77.60
2023-03-06T08:42:18.443Z,77.60
2023-03-06T08:45:20.520Z,77.60
2023-03-06T08:48:22.270Z,77.60
2023-03-06T08:51:24.338Z,77.60
2023-03-06T08:54:26.113Z,77.50
2023-03-06T08:57:27.843Z,77.50
2023-03-06T09:00:29.697Z,77.50
2023-03-06T09:03:31.348Z,77.50
2023-03-06T09:06:34.900Z,77.50
2023-03-06T09:09:36.654Z,77.50
2023-03-06T09:12:49.900Z,77.40
2023-03-06T09:15:52.576Z,77.30
2023-03-06T09:18:54.337Z,77.10
2023-03-06T09:21:57.777Z,77.10
2023-03-06T09:24:59.849Z,76.80
2023-03-06T09:28:10.862Z,76.70
2023-03-06T09:31:16.042Z,76.50
2023-03-06T09:34:18.016Z,76.50
2023-03-06T09:37:19.696Z,76.50
2023-03-06T09:40:34.143Z,76.60
2023-03-06T09:43:38.148Z,76.50
2023-03-06T09:47:03.595Z,76.40
2023-03-06T09:50:18.091Z,76.00
2023-03-06T09:53:29.206Z,75.70
2023-03-06T09:56:31.857Z,75.50
2023-03-06T09:59:33.556Z,75.10
2023-03-06T10:02:42.252Z,74.80
2023-03-06T10:06:12.959Z,74.70
2023-03-06T10:09:17.577Z,74.60
2023-03-06T10:12:36.588Z,74.40
2023-03-06T10:15:39.343Z,74.20
2023-03-06T10:18:41.058Z,73.90
2023-03-06T10:22:02.268Z,73.60
2023-03-06T10:25:19.461Z,73.20
2023-03-06T10:28:30.678Z,73.00
2023-03-06T10:31:32.389Z,72.90
2023-03-06T10:34:35.894Z,73.00
2023-03-06T10:37:37.553Z,73.00
2023-03-06T10:41:03.742Z,73.00
2023-03-06T10:44:05.430Z,72.90
2023-03-06T10:47:31.107Z,72.70
2023-03-06T10:50:32.786Z,72.50
2023-03-06T10:53:34.422Z,72.40
2023-03-06T10:56:38.508Z,72.20
2023-03-06T10:59:50.708Z,71.90
2023-03-06T11:03:18.872Z,71.80
2023-03-06T11:06:35.038Z,71.70
2023-03-06T11:09:36.697Z,71.60
2023-03-06T11:12:39.229Z,71.30
2023-03-06T11:15:41.151Z,70.90
2023-03-06T11:18:42.913Z,70.80
2023-03-06T11:21:44.565Z,70.80
2023-03-06T11:24:48.598Z,70.90
2023-03-06T11:28:07.495Z,70.70
2023-03-06T11:31:31.879Z,70.80
2023-03-06T11:34:50.649Z,70.90
2023-03-06T11:38:00.768Z,71.00
2023-03-06T11:41:04.551Z,71.20
2023-03-06T11:44:40.309Z,71.20
2023-03-06T11:47:44.363Z,71.00
2023-03-06T11:50:46.466Z,70.70
2023-03-06T11:53:48.216Z,70.10
2023-03-06T11:56:56.259Z,70.00
2023-03-06T12:00:12.547Z,70.30
2023-03-06T12:03:31.240Z,70.30
2023-03-06T12:07:00.994Z,70.10
2023-03-06T12:10:17.403Z,69.90
2023-03-06T12:17:08.812Z,69.70
2023-03-06T12:20:32.981Z,69.40
2023-03-06T12:24:30.009Z,69.00
2023-03-06T12:27:53.278Z,68.50
2023-03-06T12:30:54.876Z,68.20
2023-03-06T12:34:01.417Z,68.00
2023-03-06T12:37:22.432Z,67.80
2023-03-06T12:40:42.624Z,67.40
2023-03-06T12:43:46.316Z,67.10
2023-03-06T12:47:10.809Z,66.90
2023-03-06T12:50:38.842Z,66.30
2023-03-06T12:53:40.485Z,65.90
2023-03-06T12:56:42.371Z,65.90
2023-03-06T12:59:48.517Z,65.90
2023-03-06T13:02:50.278Z,65.80
2023-03-06T13:05:58.043Z,65.70
2023-03-06T13:09:13.167Z,65.60
2023-03-06T13:12:38.133Z,65.50
2023-03-06T13:15:47.038Z,65.50
2023-03-06T13:19:04.512Z,65.90
2023-03-06T13:22:14.042Z,65.60
2023-03-06T13:25:18.932Z,65.60
2023-03-06T13:28:48.682Z,65.60
2023-03-06T13:31:53.351Z,65.50
2023-03-06T13:34:55.000Z,65.40
2023-03-06T13:37:57.268Z,65.30
2023-03-06T13:41:20.655Z,65.20
2023-03-06T13:44:25.406Z,65.40
2023-03-06T13:47:32.330Z,65.40
2023-03-06T13:50:37.982Z,65.00
2023-03-06T13:54:13.926Z,64.70
2023-03-06T13:57:15.787Z,64.50
2023-03-06T14:00:41.656Z,64.00
2023-03-06T14:03:56.737Z,63.50
2023-03-06T14:07:18.857Z,63.40
2023-03-06T14:10:22.670Z,63.20
2023-03-06T14:13:32.097Z,63.20
2023-03-06T14:16:49.482Z,63.50
2023-03-06T14:19:52.099Z,63.90
2023-03-06T14:22:53.824Z,64.10
2023-03-06T14:25:58.172Z,64.20
2023-03-06T14:29:03.404Z,64.30
2023-03-06T14:32:09.112Z,64.50
2023-03-06T14:35:21.837Z,64.70
2023-03-06T14:38:23.564Z,65.00
2023-03-06T14:41:29.953Z,65.40
2023-03-06T14:44:31.691Z,66.00
2023-03-06T14:47:53.269Z,66.40
2023-03-06T14:50:55.915Z,66.70
2023-03-06T14:54:00.726Z,67.00
2023-03-06T14:57:15.040Z,67.20
2023-03-06T15:00:19.444Z,67.50
2023-03-06T15:03:45.668Z,67.90
2023-03-06T15:06:48.678Z,68.50
2023-03-06T15:09:51.770Z,68.80
2023-03-06T15:12:53.525Z,69.10
2023-03-06T15:15:57.114Z,69.50
2023-03-06T15:19:02.394Z,70.00
2023-03-06T15:22:04.076Z,70.60
2023-03-06T15:25:15.035Z,70.90
2023-03-06T15:28:38.639Z,71.50
2023-03-06T15:31:44.243Z,71.60
2023-03-06T15:34:45.958Z,71.80
2023-03-06T15:37:47.620Z,71.90
2023-03-06T15:40:57.193Z,72.00
2023-03-06T15:43:59.496Z,72.20
2023-03-06T15:47:09.276Z,72.50
2023-03-06T15:50:22.223Z,72.70
2023-03-06T15:53:23.893Z,73.00
2023-03-06T15:56:37.695Z,73.00
2023-03-06T15:59:42.839Z,73.30
2023-03-06T16:02:44.535Z,73.50
2023-03-06T16:05:46.388Z,73.60
2023-03-06T16:08:48.016Z,74.00
2023-03-06T16:11:49.656Z,74.20
2023-03-06T16:14:51.315Z,74.40
2023-03-06T16:17:53.458Z,74.70
2023-03-06T16:20:55.310Z,74.90
2023-03-06T16:23:56.957Z,75.10
2023-03-06T16:27:00.491Z,75.40
2023-03-06T16:30:02.359Z,75.60
2023-03-06T16:33:04.487Z,75.70
2023-03-06T16:36:18.857Z,75.80
2023-03-06T16:39:21.856Z,75.90
2023-03-06T16:42:23.505Z,76.00
2023-03-06T16:45:25.363Z,76.10
2023-03-06T16:48:27.000Z,76.20
2023-03-06T16:51:28.641Z,76.20
2023-03-06T16:54:30.436Z,76.40
2023-03-06T16:57:35.576Z,76.30
2023-03-06T17:00:37.272Z,76.40
2023-03-06T17:03:39.320Z,76.30
2023-03-06T17:06:41.874Z,76.30
2023-03-06T17:09:43.861Z,76.30
2023-03-06T17:12:45.597Z,76.20
2023-03-06T17:15:58.898Z,76.40
2023-03-06T17:19:02.372Z,76.50
2023-03-06T17:22:04.033Z,76.70
2023-03-06T17:25:06.793Z,76.80
2023-03-06T17:28:08.438Z,76.90
2023-03-06T17:31:21.013Z,77.20
2023-03-06T17:34:24.567Z,77.30
2023-03-06T17:37:26.424Z,77.50
2023-03-06T17:40:28.158Z,77.60
2023-03-06T17:43:29.803Z,77.80
2023-03-06T17:46:32.099Z,78.00
2023-03-06T17:49:33.820Z,78.10
2023-03-06T17:52:35.513Z,78.20
2023-03-06T17:55:38.573Z,78.20
2023-03-06T17:58:40.191Z,78.30
2023-03-06T18:01:41.891Z,78.40
2023-03-06T18:04:43.701Z,78.50
2023-03-06T18:07:45.844Z,78.50
2023-03-06T18:10:47.599Z,78.50
2023-03-06T18:13:49.391Z,78.60
2023-03-06T18:16:51.335Z,78.60
2023-03-06T18:19:53.012Z,78.60
2023-03-06T18:22:54.678Z,78.70
2023-03-06T18:26:15.885Z,78.70
2023-03-06T18:29:17.633Z,78.80
2023-03-06T18:32:19.341Z,78.90
2023-03-06T18:35:21.436Z,78.90
2023-03-06T18:38:23.228Z,79.00
2023-03-06T18:41:24.951Z,79.20
2023-03-06T18:44:26.580Z,79.00
2023-03-06T18:47:28.455Z,79.00
2023-03-06T18:50:30.069Z,79.00
2023-03-06T18:53:31.770Z,79.00
2023-03-06T18:56:33.751Z,79.10
2023-03-06T18:59:35.406Z,79.10
2023-03-06T19:02:37.037Z,79.20
2023-03-06T19:05:43.555Z,79.10
2023-03-06T19:08:45.262Z,79.30
2023-03-06T19:11:47.526Z,79.20
2023-03-06T19:14:49.232Z,79.30
2023-03-06T19:17:51.419Z,79.40
2023-03-06T19:20:53.263Z,79.40
2023-03-06T19:23:55.198Z,79.40
2023-03-06T19:26:56.985Z,79.50
2023-03-06T19:29:58.785Z,79.40
2023-03-06T19:33:00.471Z,79.60
2023-03-06T19:36:03.201Z,79.60
2023-03-06T19:39:05.766Z,79.60
2023-03-06T19:42:07.569Z,79.70
2023-03-06T19:45:09.477Z,79.70
2023-03-06T19:48:12.447Z,79.80
2023-03-06T19:51:14.161Z,79.70
2023-03-06T19:54:16.055Z,79.80
2023-03-06T19:57:17.743Z,79.80
2023-03-06T20:00:19.791Z,79.90
2023-03-06T20:03:21.502Z,80.00
2023-03-06T20:06:23.815Z,80.30
2023-03-06T20:09:25.647Z,80.50
2023-03-06T20:12:27.373Z,80.60
2023-03-06T20:15:29.418Z,80.60
2023-03-06T20:18:31.085Z,80.50
2023-03-06T20:21:35.277Z,80.60
2023-03-06T20:24:36.904Z,80.50
2023-03-06T20:27:39.220Z,80.50
2023-03-06T20:30:40.848Z,80.60
2023-03-06T20:33:43.605Z,80.70
2023-03-06T20:36:45.348Z,80.60
2023-03-06T20:39:47.800Z,80.70
2023-03-06T20:42:49.500Z,80.70
2023-03-06T20:46:02.139Z,80.80
2023-03-06T20:49:04.004Z,80.90
2023-03-06T20:52:05.653Z,81.00
2023-03-06T20:55:07.620Z,80.90
2023-03-06T20:58:09.263Z,81.00
2023-03-06T21:01:24.187Z,81.10
2023-03-06T21:04:25.906Z,81.20
2023-03-06T21:07:27.697Z,81.30
2023-03-06T21:10:31.013Z,81.30
2023-03-06T21:13:32.645Z,81.50
2023-03-06T21:16:34.557Z,81.50
2023-03-06T21:19:36.780Z,81.40
2023-03-06T21:22:38.502Z,81.60
2023-03-06T21:25:47.739Z,81.60
2023-03-06T21:28:49.505Z,81.80
2023-03-06T21:31:51.220Z,81.90
2023-03-06T21:34:52.863Z,82.00
2023-03-06T21:37:54.585Z,82.10
2023-03-06T21:40:56.334Z,82.30
2023-03-06T21:43:59.783Z,82.40
2023-03-06T21:47:01.724Z,82.50
